Time;durP1;ratioP1;P1;durP2;ratioP2;P2;SDS_P1;SDS_P2;PMS_P1;PMS_P2;Temp;Humidity;BMP_temperature;BMP_pressure;BME280_temperature;BME280_humidity;BME280_pressure;Samples;Min_cycle;Max_cycle;Signal;HPM_P1;HPM_P2
2023/11/05 00:01:57;;;;;;;4.57;1.53;;;8.50;99.90;;;;;;481956;247;27889;-72
2023/11/05 00:03:58;;;;;;;5.90;1.67;;;8.50;99.90;;;;;;482005;247;27906;-72
2023/11/05 00:05:59;;;;;;;4.60;1.30;;;8.40;99.90;;;;;;481984;247;27968;-72
2023/11/05 00:08:01;;;;;;;2.83;1.30;;;8.40;99.90;;;;;;481922;247;28009;-72
2023/11/05 00:10:01;;;;;;;4.10;1.30;;;8.50;99.90;;;;;;481706;247;27931;-72
2023/11/05 00:12:03;;;;;;;11.30;1.80;;;8.50;99.90;;;;;;481814;247;28514;-72
2023/11/05 00:14:04;;;;;;;2.63;1.57;;;8.50;99.90;;;;;;481970;247;28594;-73
2023/11/05 00:16:05;;;;;;;2.70;1.30;;;8.50;99.90;;;;;;481983;247;28483;-72
2023/11/05 00:18:08;;;;;;;4.00;1.50;;;8.50;99.90;;;;;;481918;247;28086;-73
2023/11/05 00:20:09;;;;;;;4.10;1.40;;;8.50;99.90;;;;;;481990;247;28012;-72
2023/11/05 00:22:10;;;;;;;3.30;2.13;;;8.50;99.90;;;;;;482007;247;28135;-72
2023/11/05 00:24:11;;;;;;;3.33;1.63;;;8.60;99.90;;;;;;481938;247;27970;-72
2023/11/05 00:26:13;;;;;;;4.63;1.80;;;8.50;99.90;;;;;;481627;247;28145;-72
2023/11/05 00:28:14;;;;;;;5.70;1.50;;;8.50;99.90;;;;;;481910;247;28278;-72
2023/11/05 00:30:15;;;;;;;9.00;1.97;;;8.50;99.90;;;;;;481936;247;28386;-72
2023/11/05 00:32:16;;;;;;;2.47;1.47;;;8.50;99.90;;;;;;481913;247;28616;-73
2023/11/05 00:34:18;;;;;;;4.13;1.53;;;8.50;99.90;;;;;;481967;247;28297;-71
2023/11/05 00:36:19;;;;;;;4.87;1.77;;;8.60;99.90;;;;;;481982;247;27538;-71
2023/11/05 00:38:20;;;;;;;8.10;1.43;;;8.60;99.90;;;;;;481899;247;27911;-74
2023/11/05 00:40:21;;;;;;;2.60;1.50;;;8.60;99.90;;;;;;482000;247;27932;-72
2023/11/05 00:42:23;;;;;;;5.47;1.50;;;8.60;99.90;;;;;;482021;246;28183;-72
2023/11/05 00:44:24;;;;;;;3.70;1.50;;;8.70;99.90;;;;;;481992;247;28061;-72
2023/11/05 00:46:25;;;;;;;6.40;1.33;;;8.70;99.90;;;;;;481961;247;28008;-72
2023/11/05 00:48:26;;;;;;;6.87;2.07;;;8.70;99.90;;;;;;481930;247;28528;-73
2023/11/05 00:50:28;;;;;;;4.67;1.67;;;8.70;99.90;;;;;;481927;247;28016;-72
2023/11/05 00:52:29;;;;;;;6.20;1.80;;;8.70;99.90;;;;;;481923;247;28023;-72
2023/11/05 00:54:30;;;;;;;3.80;1.50;;;8.70;99.90;;;;;;481903;247;28082;-72
2023/11/05 00:56:31;;;;;;;4.47;1.80;;;8.70;99.90;;;;;;481927;247;27504;-71
2023/11/05 00:58:33;;;;;;;5.97;2.23;;;8.70;99.90;;;;;;481993;247;28100;-72
2023/11/05 01:00:34;;;;;;;5.13;1.93;;;8.70;99.90;;;;;;481976;247;28034;-71
2023/11/05 01:02:35;;;;;;;3.70;1.50;;;8.70;99.90;;;;;;481990;247;28017;-72
2023/11/05 01:04:36;;;;;;;6.87;1.70;;;8.70;99.90;;;;;;482003;247;28464;-72
2023/11/05 01:06:38;;;;;;;3.37;2.97;;;8.70;99.90;;;;;;482037;247;28306;-72
2023/11/05 01:08:39;;;;;;;3.13;1.37;;;8.70;99.90;;;;;;481970;247;28519;-73
2023/11/05 01:10:40;;;;;;;9.53;2.00;;;8.70;99.90;;;;;;482011;247;28483;-72
2023/11/05 01:12:41;;;;;;;2.93;1.80;;;8.70;99.90;;;;;;481940;247;28606;-72
2023/11/05 01:14:43;;;;;;;4.70;1.30;;;8.70;99.90;;;;;;481934;247;27888;-74
2023/11/05 01:16:44;;;;;;;4.97;1.63;;;8.70;99.90;;;;;;481877;247;27954;-72
2023/11/05 01:18:45;;;;;;;2.40;1.50;;;8.70;99.90;;;;;;481802;247;27877;-72
2023/11/05 01:20:46;;;;;;;8.13;1.50;;;8.70;99.90;;;;;;481903;247;28094;-72
2023/11/05 01:22:48;;;;;;;3.33;1.20;;;8.70;99.90;;;;;;481908;247;28016;-72
2023/11/05 01:24:49;;;;;;;3.57;1.50;;;8.70;99.90;;;;;;481924;247;27546;-74
2023/11/05 01:26:50;;;;;;;3.53;1.47;;;8.70;99.90;;;;;;481905;247;27975;-72
2023/11/05 01:28:51;;;;;;;1.57;1.27;;;8.70;99.90;;;;;;481933;247;27985;-73
2023/11/05 01:30:53;;;;;;;6.10;1.40;;;8.70;99.90;;;;;;481907;247;28166;-72
2023/11/05 01:32:54;;;;;;;3.23;1.30;;;8.70;99.90;;;;;;481910;247;28000;-72
2023/11/05 01:34:55;;;;;;;5.10;1.63;;;8.70;99.90;;;;;;482001;247;27778;-73
2023/11/05 01:36:56;;;;;;;5.43;1.60;;;8.80;99.90;;;;;;481992;247;28185;-72
2023/11/05 01:38:58;;;;;;;1.83;1.63;;;8.70;99.90;;;;;;481917;247;27711;-72
2023/11/05 01:40:59;;;;;;;2.57;1.20;;;8.70;99.90;;;;;;481942;247;27976;-72
2023/11/05 01:43:00;;;;;;;3.67;1.30;;;8.70;99.90;;;;;;481957;247;28381;-72
2023/11/05 01:45:01;;;;;;;4.37;1.60;;;8.80;99.90;;;;;;481952;247;28536;-73
2023/11/05 01:47:03;;;;;;;2.30;0.93;;;8.80;99.90;;;;;;482016;247;27952;-72
2023/11/05 01:49:06;;;;;;;4.73;1.33;;;8.80;99.90;;;;;;482015;247;28388;-72
2023/11/05 01:51:08;;;;;;;2.93;1.30;;;8.90;99.90;;;;;;482007;247;28520;-72
2023/11/05 01:53:09;;;;;;;3.83;1.27;;;8.90;99.90;;;;;;481998;247;30361;-72
2023/11/05 01:55:10;;;;;;;3.17;1.60;;;8.90;99.90;;;;;;482021;247;28524;-72
2023/11/05 01:57:11;;;;;;;3.90;1.33;;;8.90;99.90;;;;;;482028;247;28014;-71
2023/11/05 01:59:13;;;;;;;3.47;1.40;;;8.90;99.90;;;;;;482044;247;28074;-72
2023/11/05 02:01:14;;;;;;;4.13;1.43;;;8.80;99.90;;;;;;481931;247;28086;-72
2023/11/05 02:03:15;;;;;;;4.20;1.70;;;8.90;99.90;;;;;;481920;247;28019;-72
2023/11/05 02:05:16;;;;;;;3.27;1.50;;;8.90;99.90;;;;;;481927;247;28102;-72
2023/11/05 02:07:18;;;;;;;1.83;1.27;;;8.80;99.90;;;;;;481991;247;28031;-72
2023/11/05 02:09:19;;;;;;;3.23;1.57;;;8.80;99.90;;;;;;482005;247;27482;-72
2023/11/05 02:11:20;;;;;;;5.13;1.43;;;8.80;99.90;;;;;;481991;246;27991;-72
2023/11/05 02:13:21;;;;;;;9.60;1.83;;;8.80;99.90;;;;;;481981;247;28018;-73
2023/11/05 02:15:23;;;;;;;2.50;1.70;;;8.80;99.90;;;;;;481996;247;27833;-72
2023/11/05 02:17:24;;;;;;;1.73;1.50;;;8.80;99.90;;;;;;481974;247;27667;-73
2023/11/05 02:19:25;;;;;;;2.60;1.37;;;8.80;99.90;;;;;;481946;247;27977;-72
2023/11/05 02:21:26;;;;;;;5.30;1.70;;;8.70;99.90;;;;;;481978;247;28015;-72
2023/11/05 02:23:28;;;;;;;4.00;1.40;;;8.70;99.90;;;;;;481984;247;28521;-72
2023/11/05 02:25:29;;;;;;;9.47;3.10;;;8.70;99.90;;;;;;481951;247;28449;-71
2023/11/05 02:27:30;;;;;;;9.50;5.93;;;8.70;99.90;;;;;;481887;247;28477;-72
2023/11/05 02:29:32;;;;;;;4.80;3.00;;;8.70;99.90;;;;;;481979;247;29214;-73
2023/11/05 02:31:33;;;;;;;5.60;2.20;;;8.60;99.90;;;;;;481977;247;28553;-72
2023/11/05 02:33:34;;;;;;;6.23;1.90;;;8.60;99.90;;;;;;482003;247;28436;-73
2023/11/05 02:35:35;;;;;;;4.60;1.70;;;8.60;99.90;;;;;;481995;247;28047;-71
2023/11/05 02:37:36;;;;;;;4.40;1.50;;;8.60;99.90;;;;;;481887;247;27625;-72
2023/11/05 02:39:38;;;;;;;2.40;1.40;;;8.60;99.90;;;;;;481910;247;27730;-72
2023/11/05 02:41:39;;;;;;;2.27;1.30;;;8.60;99.90;;;;;;481964;247;27514;-71
2023/11/05 02:43:40;;;;;;;5.53;1.63;;;8.60;99.90;;;;;;482013;247;28088;-72
2023/11/05 02:45:41;;;;;;;2.40;1.20;;;8.50;99.90;;;;;;481935;247;27939;-73
2023/11/05 02:47:43;;;;;;;11.67;1.77;;;8.60;99.90;;;;;;481917;247;28182;-72
2023/11/05 02:49:44;;;;;;;4.90;1.40;;;8.60;99.90;;;;;;481894;247;28495;-73
2023/11/05 02:51:45;;;;;;;8.43;1.90;;;8.50;99.90;;;;;;481923;247;28107;-72
2023/11/05 02:53:46;;;;;;;4.60;1.50;;;8.60;99.90;;;;;;481912;247;27942;-72
2023/11/05 02:55:48;;;;;;;4.37;1.67;;;8.60;99.90;;;;;;481931;246;28102;-72
2023/11/05 02:57:49;;;;;;;3.80;1.57;;;8.60;99.90;;;;;;481905;247;27648;-72
2023/11/05 02:59:50;;;;;;;3.80;1.60;;;8.50;99.90;;;;;;481892;247;27894;-73
2023/11/05 03:01:51;;;;;;;6.70;1.60;;;8.50;99.90;;;;;;481871;247;28231;-72
2023/11/05 03:03:53;;;;;;;4.03;1.50;;;8.50;99.90;;;;;;481857;247;28116;-72
2023/11/05 03:05:54;;;;;;;7.40;1.60;;;8.50;99.90;;;;;;481843;247;27975;-72
2023/11/05 03:07:55;;;;;;;4.40;1.60;;;8.50;99.90;;;;;;481886;247;27919;-72
2023/11/05 03:09:56;;;;;;;2.40;1.60;;;8.50;99.90;;;;;;481907;247;27964;-74
2023/11/05 03:11:58;;;;;;;3.47;1.40;;;8.50;99.90;;;;;;481914;247;28024;-72
2023/11/05 03:13:59;;;;;;;4.80;1.60;;;8.50;99.90;;;;;;481899;247;28026;-72
2023/11/05 03:16:00;;;;;;;5.03;1.87;;;8.50;99.90;;;;;;481905;247;28089;-72
2023/11/05 03:18:01;;;;;;;4.83;1.77;;;8.50;99.90;;;;;;481919;247;27836;-71
2023/11/05 03:20:05;;;;;;;4.07;1.60;;;8.50;99.90;;;;;;481921;247;28000;-72
2023/11/05 03:22:06;;;;;;;2.20;1.20;;;8.50;99.90;;;;;;481643;247;28062;-72
2023/11/05 03:24:05;;;;;;;6.90;2.47;;;8.50;99.90;;;;;;481772;247;27697;-72
2023/11/05 03:26:06;;;;;;;3.03;1.30;;;8.50;99.90;;;;;;481985;247;28111;-72
2023/11/05 03:28:08;;;;;;;1.53;1.30;;;8.50;99.90;;;;;;481967;247;27986;-72
2023/11/05 03:30:09;;;;;;;6.20;1.63;;;8.50;99.90;;;;;;481976;247;28523;-72
2023/11/05 03:32:10;;;;;;;4.40;1.87;;;8.60;99.90;;;;;;481908;247;28057;-72
2023/11/05 03:34:11;;;;;;;11.73;1.97;;;8.60;99.90;;;;;;481895;247;28354;-72
2023/11/05 03:36:13;;;;;;;8.73;1.70;;;8.60;99.90;;;;;;481914;247;28483;-73
2023/11/05 03:38:14;;;;;;;6.23;2.07;;;8.60;99.90;;;;;;481899;247;28346;-72
2023/11/05 03:40:15;;;;;;;5.53;1.60;;;8.70;99.90;;;;;;481908;247;28109;-72
2023/11/05 03:42:16;;;;;;;5.00;1.30;;;8.60;99.90;;;;;;481820;247;27913;-72
2023/11/05 03:44:18;;;;;;;5.60;1.47;;;8.60;99.90;;;;;;481822;247;28014;-72
2023/11/05 03:46:19;;;;;;;8.03;1.63;;;8.60;99.90;;;;;;481981;247;28152;-72
2023/11/05 03:48:20;;;;;;;7.33;1.87;;;8.60;99.90;;;;;;481989;247;28052;-72
2023/11/05 03:50:21;;;;;;;4.47;1.50;;;8.60;99.90;;;;;;481890;247;28108;-72
2023/11/05 03:52:23;;;;;;;6.40;1.50;;;8.60;99.90;;;;;;481888;247;28090;-72
2023/11/05 03:54:24;;;;;;;7.80;1.97;;;8.60;99.90;;;;;;481899;247;27981;-72
2023/11/05 03:56:25;;;;;;;4.80;1.50;;;8.60;99.90;;;;;;481934;247;28124;-73
2023/11/05 03:58:26;;;;;;;5.60;1.63;;;8.60;99.90;;;;;;481888;247;27885;-72
2023/11/05 04:00:28;;;;;;;7.93;1.90;;;8.60;99.90;;;;;;481798;247;28055;-72
2023/11/05 04:02:29;;;;;;;7.20;1.60;;;8.70;99.90;;;;;;481995;247;28372;-74
2023/11/05 04:04:30;;;;;;;5.43;1.50;;;8.70;99.90;;;;;;481969;247;27627;-72
2023/11/05 04:06:31;;;;;;;6.47;1.53;;;8.70;99.90;;;;;;482015;247;28078;-72
2023/11/05 04:08:33;;;;;;;4.53;1.70;;;8.70;99.90;;;;;;481978;247;28532;-71
2023/11/05 04:10:34;;;;;;;7.87;1.87;;;8.70;99.90;;;;;;481908;247;28107;-72
2023/11/05 04:12:37;;;;;;;5.80;1.40;;;8.80;99.90;;;;;;481978;247;28345;-74
2023/11/05 04:14:38;;;;;;;8.97;2.00;;;8.90;99.90;;;;;;481974;246;27822;-72
2023/11/05 04:16:39;;;;;;;4.03;1.50;;;8.90;99.90;;;;;;481990;247;27930;-72
2023/11/05 04:18:41;;;;;;;2.50;1.57;;;9.00;99.90;;;;;;481888;247;27847;-72
2023/11/05 04:20:42;;;;;;;6.67;1.50;;;9.00;99.90;;;;;;481877;247;28479;-72
2023/11/05 04:22:45;;;;;;;9.47;1.47;;;8.90;99.90;;;;;;481898;247;28838;-72
2023/11/05 04:24:44;;;;;;;2.70;1.40;;;8.90;99.90;;;;;;481805;247;28286;-71
2023/11/05 04:26:45;;;;;;;4.93;2.10;;;8.90;99.90;;;;;;481906;247;28556;-73
2023/11/05 04:28:47;;;;;;;7.37;2.03;;;8.90;99.90;;;;;;481890;247;28486;-72
2023/11/05 04:30:48;;;;;;;5.70;1.57;;;9.00;99.90;;;;;;481901;247;28317;-72
2023/11/05 04:32:49;;;;;;;8.80;1.73;;;8.90;99.90;;;;;;481901;247;27881;-72
2023/11/05 04:34:50;;;;;;;6.87;1.63;;;8.90;99.90;;;;;;481854;247;27624;-72
2023/11/05 04:36:52;;;;;;;7.57;1.63;;;8.90;99.90;;;;;;481872;247;27949;-72
2023/11/05 04:38:53;;;;;;;6.23;1.83;;;8.90;99.90;;;;;;481863;247;27968;-71
2023/11/05 04:40:54;;;;;;;5.60;1.70;;;8.90;99.90;;;;;;481886;247;28079;-72
2023/11/05 04:42:55;;;;;;;3.20;1.70;;;8.90;99.90;;;;;;481922;247;27975;-72
2023/11/05 04:44:58;;;;;;;6.83;1.70;;;8.90;99.90;;;;;;481950;247;27988;-72
2023/11/05 04:46:58;;;;;;;6.00;1.60;;;8.90;99.90;;;;;;481830;247;27533;-72
2023/11/05 04:48:59;;;;;;;10.97;1.50;;;8.80;99.90;;;;;;482003;247;27836;-72
2023/11/05 04:51:00;;;;;;;5.10;1.60;;;8.80;99.90;;;;;;481960;247;27973;-72
2023/11/05 04:53:02;;;;;;;8.80;1.40;;;8.90;99.90;;;;;;481896;247;28011;-72
2023/11/05 04:55:03;;;;;;;3.40;1.30;;;8.80;99.90;;;;;;481913;247;28052;-72
2023/11/05 04:57:04;;;;;;;3.83;1.57;;;8.80;99.90;;;;;;481882;247;27814;-72
2023/11/05 04:59:05;;;;;;;8.10;1.73;;;8.90;99.90;;;;;;481886;247;28707;-72
2023/11/05 05:01:07;;;;;;;2.60;1.30;;;8.90;99.90;;;;;;481909;247;28301;-72
2023/11/05 05:03:08;;;;;;;3.23;1.13;;;8.90;99.90;;;;;;481947;247;28367;-72
2023/11/05 05:05:09;;;;;;;3.50;1.30;;;8.90;99.90;;;;;;481963;247;28410;-72
2023/11/05 05:07:10;;;;;;;4.00;1.30;;;8.90;99.90;;;;;;481955;247;28616;-72
2023/11/05 05:09:12;;;;;;;4.73;1.80;;;8.90;99.90;;;;;;481918;247;28145;-72
2023/11/05 05:11:13;;;;;;;4.43;1.20;;;8.90;99.90;;;;;;481947;247;28098;-72
2023/11/05 05:13:14;;;;;;;2.90;1.20;;;8.90;99.90;;;;;;481980;247;27901;-72
2023/11/05 05:15:15;;;;;;;3.27;1.30;;;8.90;99.90;;;;;;481952;247;28021;-73
2023/11/05 05:17:17;;;;;;;4.20;1.20;;;8.90;99.90;;;;;;481959;247;28010;-72
2023/11/05 05:19:18;;;;;;;2.30;1.37;;;8.90;99.90;;;;;;481810;247;28011;-74
2023/11/05 05:21:19;;;;;;;3.37;1.10;;;8.90;99.90;;;;;;481910;247;27869;-72
2023/11/05 05:23:21;;;;;;;1.40;1.13;;;8.90;99.90;;;;;;481869;247;27959;-72
2023/11/05 05:25:22;;;;;;;1.50;1.00;;;8.90;99.90;;;;;;481902;247;27623;-72
2023/11/05 05:27:23;;;;;;;3.37;1.40;;;9.00;99.90;;;;;;481923;247;27611;-72
2023/11/05 05:29:24;;;;;;;3.37;1.10;;;9.00;99.90;;;;;;481935;247;28154;-72
2023/11/05 05:31:25;;;;;;;2.73;1.00;;;9.00;99.90;;;;;;481944;247;27924;-72
2023/11/05 05:33:27;;;;;;;8.57;1.90;;;9.00;99.90;;;;;;481992;247;27964;-72
2023/11/05 05:35:28;;;;;;;2.33;1.17;;;9.00;99.90;;;;;;481932;247;28163;-72
2023/11/05 05:37:29;;;;;;;2.67;1.27;;;9.00;99.90;;;;;;481913;247;28362;-72
2023/11/05 05:39:30;;;;;;;3.43;1.67;;;9.00;99.90;;;;;;481920;247;28468;-72
2023/11/05 05:41:32;;;;;;;2.43;0.93;;;9.00;99.90;;;;;;482006;247;28524;-72
2023/11/05 05:43:33;;;;;;;1.50;1.10;;;9.00;99.90;;;;;;481944;247;28359;-72
2023/11/05 05:45:34;;;;;;;3.53;1.13;;;9.10;99.90;;;;;;481914;247;28526;-74
2023/11/05 05:47:35;;;;;;;3.10;1.10;;;9.10;99.90;;;;;;481924;247;27964;-72
2023/11/05 05:49:37;;;;;;;2.73;1.03;;;9.00;99.90;;;;;;481912;247;28019;-72
2023/11/05 05:51:38;;;;;;;3.07;1.20;;;9.00;99.90;;;;;;481916;247;28044;-72
2023/11/05 05:53:39;;;;;;;2.70;1.13;;;9.00;99.90;;;;;;481968;247;27900;-72
2023/11/05 05:55:40;;;;;;;2.83;1.30;;;9.00;99.90;;;;;;481940;247;27766;-72
2023/11/05 05:57:42;;;;;;;2.83;1.10;;;9.00;99.90;;;;;;481974;247;27827;-72
2023/11/05 05:59:43;;;;;;;1.93;1.07;;;8.90;99.90;;;;;;481878;247;27635;-71
2023/11/05 06:01:44;;;;;;;1.80;1.10;;;8.90;99.90;;;;;;481951;247;27905;-71
2023/11/05 06:03:47;;;;;;;1.87;1.77;;;8.90;99.90;;;;;;481920;247;27893;-72
2023/11/05 06:05:47;;;;;;;4.40;1.10;;;8.90;99.90;;;;;;481821;247;27694;-72
2023/11/05 06:07:48;;;;;;;3.23;0.90;;;8.90;99.90;;;;;;481946;247;27948;-72
2023/11/05 06:09:49;;;;;;;3.53;1.17;;;8.90;99.90;;;;;;481935;247;28140;-72
2023/11/05 06:11:51;;;;;;;1.70;1.00;;;8.90;99.90;;;;;;481947;247;27917;-72
2023/11/05 06:13:52;;;;;;;2.20;1.00;;;8.90;99.90;;;;;;481960;247;27941;-72
2023/11/05 06:15:53;;;;;;;0.80;0.80;;;8.80;99.90;;;;;;482025;247;28544;-72
2023/11/05 06:17:54;;;;;;;2.50;1.20;;;8.80;99.90;;;;;;481991;247;28312;-72
2023/11/05 06:19:56;;;;;;;3.20;1.17;;;8.80;99.90;;;;;;481975;247;28640;-72
2023/11/05 06:21:57;;;;;;;2.70;0.90;;;8.80;99.90;;;;;;481996;247;28640;-72
2023/11/05 06:23:58;;;;;;;1.90;0.90;;;8.70;99.90;;;;;;481942;247;28307;-71
2023/11/05 06:25:59;;;;;;;1.93;1.00;;;8.80;99.90;;;;;;482001;247;28433;-72
2023/11/05 06:28:01;;;;;;;1.57;1.00;;;8.70;99.90;;;;;;481999;247;28297;-72
2023/11/05 06:30:03;;;;;;;1.47;0.90;;;8.70;99.90;;;;;;482023;247;27839;-72
2023/11/05 06:32:03;;;;;;;0.80;0.80;;;8.70;99.90;;;;;;481879;247;27628;-72
2023/11/05 06:34:04;;;;;;;1.00;1.00;;;8.70;99.90;;;;;;482034;247;28007;-73
2023/11/05 06:36:06;;;;;;;0.80;0.80;;;8.70;99.90;;;;;;481916;247;28106;-72
2023/11/05 06:38:07;;;;;;;2.10;0.90;;;8.70;99.90;;;;;;481930;246;28141;-71
2023/11/05 06:40:08;;;;;;;0.80;0.80;;;8.70;99.90;;;;;;481984;247;27868;-71
2023/11/05 06:42:10;;;;;;;1.07;0.70;;;8.70;99.90;;;;;;482011;247;28060;-71
2023/11/05 06:44:11;;;;;;;2.00;1.13;;;8.70;99.90;;;;;;481896;247;27758;-72
2023/11/05 06:46:12;;;;;;;1.13;0.90;;;8.70;99.90;;;;;;481888;247;28094;-72
2023/11/05 06:48:13;;;;;;;2.50;0.90;;;8.70;99.90;;;;;;482019;247;28439;-74
2023/11/05 06:50:15;;;;;;;0.70;0.70;;;8.70;99.90;;;;;;481992;247;28079;-72
2023/11/05 06:52:16;;;;;;;1.73;0.80;;;8.70;99.90;;;;;;481831;247;28011;-72
2023/11/05 06:54:17;;;;;;;1.17;0.70;;;8.70;99.90;;;;;;482001;247;27964;-72
2023/11/05 06:56:18;;;;;;;0.80;0.80;;;8.70;99.90;;;;;;481906;247;28461;-72
2023/11/05 06:58:19;;;;;;;0.90;0.90;;;8.70;99.90;;;;;;481922;247;28132;-73
2023/11/05 07:00:21;;;;;;;0.90;0.80;;;8.70;99.90;;;;;;481905;247;28186;-72
2023/11/05 07:02:22;;;;;;;1.43;0.73;;;8.70;99.90;;;;;;481976;247;28482;-72
2023/11/05 07:04:23;;;;;;;1.23;0.90;;;8.70;99.90;;;;;;481988;247;29122;-72
2023/11/05 07:06:26;;;;;;;0.80;0.80;;;8.70;99.90;;;;;;482027;247;27839;-72
2023/11/05 07:08:28;;;;;;;0.90;0.90;;;8.70;99.90;;;;;;481934;247;28513;-72
2023/11/05 07:10:28;;;;;;;0.70;0.70;;;8.70;99.90;;;;;;481900;247;28463;-73
2023/11/05 07:12:29;;;;;;;0.87;0.77;;;8.80;99.90;;;;;;481957;247;27989;-72
2023/11/05 07:14:30;;;;;;;1.87;1.00;;;8.80;99.90;;;;;;481958;247;28494;-72
2023/11/05 07:16:31;;;;;;;0.87;0.80;;;8.80;99.90;;;;;;481907;247;28268;-72
2023/11/05 07:18:33;;;;;;;2.03;0.90;;;8.80;99.90;;;;;;481928;247;28121;-72
2023/11/05 07:20:36;;;;;;;3.63;0.80;;;8.80;99.90;;;;;;481898;247;28314;-72
2023/11/05 07:22:36;;;;;;;0.70;0.70;;;8.80;99.90;;;;;;481783;247;28336;-73
2023/11/05 07:24:37;;;;;;;0.97;0.70;;;8.80;99.90;;;;;;481926;247;28406;-72
2023/11/05 07:26:39;;;;;;;1.93;0.90;;;8.90;99.90;;;;;;481894;247;28498;-72
2023/11/05 07:28:40;;;;;;;1.67;0.80;;;8.90;99.90;;;;;;481980;247;27804;-72
2023/11/05 07:30:41;;;;;;;1.30;1.00;;;8.90;99.90;;;;;;482029;247;27966;-72
2023/11/05 07:32:42;;;;;;;1.73;0.90;;;8.90;99.90;;;;;;481916;247;27876;-72
2023/11/05 07:34:43;;;;;;;0.90;0.90;;;8.90;99.90;;;;;;481928;247;27608;-71
2023/11/05 07:36:45;;;;;;;2.40;0.90;;;8.90;99.90;;;;;;481906;247;27945;-72
2023/11/05 07:38:47;;;;;;;1.03;0.80;;;8.90;99.90;;;;;;481993;247;28114;-72
2023/11/05 07:40:48;;;;;;;1.43;1.00;;;8.90;99.90;;;;;;482017;247;28075;-73
2023/11/05 07:42:50;;;;;;;5.97;1.00;;;8.90;99.90;;;;;;481986;247;28038;-72
2023/11/05 07:44:51;;;;;;;0.80;0.80;;;8.90;99.90;;;;;;481991;247;28135;-72
2023/11/05 07:46:53;;;;;;;0.80;0.80;;;8.90;99.90;;;;;;481904;247;27851;-71
2023/11/05 07:48:56;;;;;;;1.40;1.30;;;8.90;99.90;;;;;;481902;247;28396;-73
2023/11/05 07:50:58;;;;;;;2.30;1.03;;;8.90;99.90;;;;;;481901;247;27983;-72
2023/11/05 07:52:59;;;;;;;4.63;0.90;;;8.90;99.90;;;;;;481922;247;27878;-72
2023/11/05 07:55:02;;;;;;;1.37;1.00;;;8.90;99.90;;;;;;481910;247;27885;-72
2023/11/05 07:57:02;;;;;;;1.07;1.00;;;8.90;99.90;;;;;;481703;247;27993;-72
2023/11/05 07:59:04;;;;;;;1.33;1.03;;;9.00;99.90;;;;;;481878;247;27976;-72
2023/11/05 08:01:06;;;;;;;0.93;0.87;;;9.00;99.90;;;;;;481902;247;27681;-73
2023/11/05 08:03:06;;;;;;;0.80;0.80;;;9.00;99.90;;;;;;481964;247;28039;-72
2023/11/05 08:05:08;;;;;;;0.80;0.80;;;9.00;99.90;;;;;;481903;247;28098;-72
2023/11/05 08:07:10;;;;;;;0.90;0.90;;;9.00;99.90;;;;;;481939;247;28106;-72
2023/11/05 08:09:12;;;;;;;1.07;0.90;;;9.00;99.90;;;;;;481969;247;27442;-72
2023/11/05 08:11:14;;;;;;;0.90;0.90;;;9.00;99.90;;;;;;481983;247;27876;-72
2023/11/05 08:13:15;;;;;;;1.50;1.20;;;9.00;99.90;;;;;;481978;247;28056;-71
2023/11/05 08:15:19;;;;;;;1.10;1.10;;;9.00;99.90;;;;;;481964;247;27930;-73
2023/11/05 08:17:21;;;;;;;1.33;1.23;;;9.10;99.90;;;;;;481801;247;27991;-72
2023/11/05 08:19:20;;;;;;;1.27;1.03;;;9.20;99.90;;;;;;481884;247;27659;-73
2023/11/05 08:21:23;;;;;;;3.17;1.20;;;9.10;99.90;;;;;;481997;247;27969;-72
2023/11/05 08:23:24;;;;;;;3.00;1.03;;;9.10;99.90;;;;;;481714;247;27886;-72
2023/11/05 08:25:25;;;;;;;2.00;0.90;;;9.10;99.90;;;;;;481930;247;28048;-72
2023/11/05 08:27:26;;;;;;;2.53;1.43;;;9.10;99.90;;;;;;481952;247;27980;-72
2023/11/05 08:29:27;;;;;;;1.60;1.50;;;9.10;99.90;;;;;;481890;247;28022;-72
2023/11/05 08:31:29;;;;;;;2.80;1.13;;;9.10;99.90;;;;;;481917;247;28444;-72
2023/11/05 08:33:30;;;;;;;1.33;0.97;;;9.10;99.90;;;;;;481943;247;28513;-73
2023/11/05 08:35:33;;;;;;;0.90;0.83;;;9.10;99.90;;;;;;481905;247;28489;-72
2023/11/05 08:37:34;;;;;;;0.90;0.90;;;9.10;99.90;;;;;;481876;247;28009;-72
2023/11/05 08:39:35;;;;;;;1.00;1.00;;;9.10;99.90;;;;;;481758;247;27909;-72
2023/11/05 08:41:36;;;;;;;3.30;0.93;;;9.20;99.90;;;;;;481882;247;27983;-72
2023/11/05 08:43:37;;;;;;;1.30;1.13;;;9.20;99.90;;;;;;481892;247;28597;-72
2023/11/05 08:45:38;;;;;;;1.63;1.20;;;9.10;99.90;;;;;;481891;247;29169;-72
2023/11/05 08:47:40;;;;;;;1.33;1.23;;;9.20;99.90;;;;;;481912;247;28532;-72
2023/11/05 08:49:41;;;;;;;1.03;1.03;;;9.20;99.90;;;;;;481909;247;28102;-73
2023/11/05 08:51:42;;;;;;;1.80;1.00;;;9.10;99.90;;;;;;481895;247;27934;-72
2023/11/05 08:53:43;;;;;;;3.73;1.13;;;9.10;99.90;;;;;;481950;247;27655;-71
2023/11/05 08:55:45;;;;;;;1.27;1.17;;;9.10;99.90;;;;;;481980;247;27793;-73
2023/11/05 08:57:46;;;;;;;1.07;0.93;;;9.10;99.90;;;;;;481889;247;27986;-72
2023/11/05 08:59:47;;;;;;;1.13;1.07;;;9.10;99.90;;;;;;481893;247;27934;-72
2023/11/05 09:01:49;;;;;;;2.07;1.30;;;9.20;99.90;;;;;;481923;247;27973;-72
2023/11/05 09:03:50;;;;;;;3.00;1.00;;;9.10;99.90;;;;;;481905;247;28017;-72
2023/11/05 09:05:51;;;;;;;1.40;1.13;;;9.10;99.90;;;;;;481801;247;27984;-72
2023/11/05 09:07:52;;;;;;;2.20;1.43;;;9.10;99.90;;;;;;481899;247;28138;-72
2023/11/05 09:09:53;;;;;;;1.60;1.17;;;9.10;99.90;;;;;;481967;247;28027;-72
2023/11/05 09:11:55;;;;;;;1.63;1.10;;;9.10;99.90;;;;;;481974;247;27807;-71
2023/11/05 09:13:56;;;;;;;1.73;1.20;;;9.10;99.90;;;;;;481978;247;27727;-71
2023/11/05 09:15:57;;;;;;;1.70;1.33;;;9.10;99.90;;;;;;481981;247;27554;-73
2023/11/05 09:17:59;;;;;;;2.63;1.40;;;9.20;99.90;;;;;;482005;247;28078;-72
2023/11/05 09:20:00;;;;;;;2.57;1.00;;;9.20;99.90;;;;;;481912;247;28094;-72
2023/11/05 09:22:01;;;;;;;2.30;1.43;;;9.20;99.90;;;;;;481969;247;28895;-72
2023/11/05 09:24:03;;;;;;;2.40;1.67;;;9.20;99.90;;;;;;482010;247;28541;-72
2023/11/05 09:26:03;;;;;;;4.10;1.17;;;9.30;99.90;;;;;;481888;247;28444;-72
2023/11/05 09:28:05;;;;;;;2.60;1.27;;;9.30;99.90;;;;;;481967;247;28502;-72
2023/11/05 09:30:11;;;;;;;2.07;1.20;;;9.40;99.90;;;;;;481957;247;28348;-71
2023/11/05 09:32:08;;;;;;;1.37;1.10;;;9.30;99.90;;;;;;481492;247;28051;-72
2023/11/05 09:34:08;;;;;;;1.00;0.97;;;9.40;99.90;;;;;;481936;247;27972;-72
2023/11/05 09:36:10;;;;;;;1.40;1.30;;;9.50;99.90;;;;;;481919;247;27638;-72
2023/11/05 09:38:11;;;;;;;1.27;1.17;;;9.50;99.90;;;;;;481974;247;27971;-72
2023/11/05 09:40:12;;;;;;;1.90;0.97;;;9.60;99.90;;;;;;481993;247;28019;-73
2023/11/05 09:42:13;;;;;;;1.63;1.33;;;9.60;99.90;;;;;;481931;247;28183;-74
2023/11/05 09:44:16;;;;;;;2.10;1.30;;;9.50;99.90;;;;;;481915;247;27956;-72
2023/11/05 09:46:17;;;;;;;3.17;1.10;;;9.50;99.90;;;;;;481773;247;28138;-72
2023/11/05 09:48:17;;;;;;;1.30;1.20;;;9.40;99.90;;;;;;481703;247;28106;-71
2023/11/05 09:50:18;;;;;;;3.60;1.40;;;9.40;99.90;;;;;;481909;247;27961;-72
2023/11/05 09:52:21;;;;;;;1.93;1.40;;;9.40;99.90;;;;;;481925;247;27975;-72
2023/11/05 09:54:21;;;;;;;2.40;1.40;;;9.50;99.90;;;;;;481843;247;27869;-72
2023/11/05 09:56:24;;;;;;;1.33;1.20;;;9.50;99.90;;;;;;481907;247;27990;-72
2023/11/05 09:58:24;;;;;;;2.47;1.00;;;9.50;99.90;;;;;;481852;247;27962;-71
2023/11/05 10:00:25;;;;;;;3.80;1.13;;;9.50;99.90;;;;;;481978;247;27619;-72
2023/11/05 10:02:26;;;;;;;1.47;1.10;;;9.50;99.90;;;;;;481913;247;28088;-72
2023/11/05 10:04:27;;;;;;;1.43;1.20;;;9.50;99.90;;;;;;481912;247;29293;-72
2023/11/05 10:06:29;;;;;;;1.43;1.17;;;9.50;99.90;;;;;;482004;247;28394;-72
2023/11/05 10:08:30;;;;;;;2.07;1.00;;;9.50;99.90;;;;;;481998;247;28595;-72
2023/11/05 10:10:31;;;;;;;1.80;1.33;;;9.50;99.90;;;;;;482003;247;28624;-71
2023/11/05 10:12:33;;;;;;;2.20;1.00;;;9.50;99.90;;;;;;481880;247;27880;-72
2023/11/05 10:14:34;;;;;;;0.90;0.90;;;9.60;99.90;;;;;;481935;247;28123;-73
2023/11/05 10:16:35;;;;;;;1.07;0.90;;;9.70;99.90;;;;;;481916;247;28003;-72
2023/11/05 10:18:38;;;;;;;3.23;1.20;;;9.60;99.90;;;;;;481982;247;27654;-73
2023/11/05 10:20:37;;;;;;;4.33;1.03;;;9.70;99.90;;;;;;481754;247;27835;-72
2023/11/05 10:22:43;;;;;;;1.13;1.00;;;9.60;99.90;;;;;;481911;247;27755;-72
2023/11/05 10:24:45;;;;;;;1.83;1.00;;;9.60;99.90;;;;;;481663;247;27887;-72
2023/11/05 10:26:44;;;;;;;1.27;1.00;;;9.60;99.90;;;;;;481762;247;28023;-74
2023/11/05 10:28:45;;;;;;;2.10;1.50;;;9.60;99.90;;;;;;481907;247;27874;-72
2023/11/05 10:30:46;;;;;;;0.97;0.97;;;9.60;99.90;;;;;;481982;247;27761;-72
2023/11/05 10:32:48;;;;;;;1.63;1.30;;;9.50;99.90;;;;;;481994;247;28015;-72
2023/11/05 10:34:52;;;;;;;1.30;0.90;;;9.50;99.90;;;;;;481970;247;27978;-72
2023/11/05 10:36:53;;;;;;;1.23;0.90;;;9.50;99.90;;;;;;481902;247;28464;-71
2023/11/05 10:38:54;;;;;;;2.87;1.00;;;9.50;99.90;;;;;;481989;247;28521;-73
2023/11/05 10:40:55;;;;;;;2.10;0.93;;;9.50;99.90;;;;;;481970;247;28324;-72